Bragado, Argentina
Current Conditions -  °F | °C
As of 5:00 AM on Saturday 01 Nov 2014 (Local Time) from SAEZ Reporting Station
Clear Clear  
Wind Chill: 54°   Ceiling: Unl
Heat Index: 54°   Visibility: 6mi
Dew Point: 41°   Wind: 17mph
Humidity: 62%   Direction: 160°SSE
Pressure: 30.18"   Gusts: NA
Location:  35.12°S, 60.51°W
Report Text: SAEZ 010800Z 16015KT 120V190 CAVOK 12/05 Q1022
Loading
Personal Weather Stations






























Interactive Weather Map
Tropical Storm Tracking
New forecast layout! Learn more

10-Day Weather Forecast

Advertisements
Track Severe Weather on mobile